Time;durP1;ratioP1;P1;durP2;ratioP2;P2;SDS_P1;SDS_P2;PMS_P1;PMS_P2;Temp;Humidity;BMP_temperature;BMP_pressure;BME280_temperature;BME280_humidity;BME280_pressure;Samples;Min_cycle;Max_cycle;Signal;HPM_P1;HPM_P2
2022/03/01 00:00:01;;;;;;;28.30;17.77;;;7.00;77.80;;;;;;5033782;28;20561;-67
2022/03/01 00:02:26;;;;;;;39.30;20.40;;;7.00;78.00;;;;;;5031379;28;20194;-66
2022/03/01 00:04:53;;;;;;;33.65;19.38;;;7.00;78.10;;;;;;5066819;28;20331;-67
2022/03/01 00:07:18;;;;;;;30.30;17.60;;;7.00;78.20;;;;;;5087667;28;20273;-65
2022/03/01 00:09:44;;;;;;;29.88;18.65;;;7.00;78.40;;;;;;5079083;28;20320;-67
2022/03/01 00:12:10;;;;;;;31.85;19.02;;;7.00;78.50;;;;;;5075321;28;20566;-68
2022/03/01 00:14:35;;;;;;;30.52;18.77;;;7.00;78.60;;;;;;5077740;28;20273;-68
2022/03/01 00:17:01;;;;;;;34.75;19.25;;;7.00;78.90;;;;;;5067782;28;20189;-66
2022/03/01 00:19:30;;;;;;;37.00;19.80;;;7.00;79.00;;;;;;5067742;28;20186;-67
2022/03/01 00:21:57;;;;;;;33.13;18.92;;;7.00;79.30;;;;;;5072833;28;20201;-67
2022/03/01 00:24:23;;;;;;;30.77;18.58;;;7.00;79.40;;;;;;5066572;28;20182;-67
2022/03/01 00:26:48;;;;;;;32.72;19.05;;;7.00;79.70;;;;;;5046384;28;20194;-67
2022/03/01 00:29:14;;;;;;;37.25;19.30;;;7.00;79.80;;;;;;5048415;28;20234;-66
2022/03/01 00:31:40;;;;;;;33.05;19.73;;;7.00;79.90;;;;;;5072528;28;20240;-68
2022/03/01 00:34:05;;;;;;;32.75;18.83;;;7.00;80.00;;;;;;5062011;28;20187;-66
2022/03/01 00:36:31;;;;;;;31.17;18.98;;;6.90;80.20;;;;;;5080209;28;20686;-67
2022/03/01 00:38:57;;;;;;;29.70;18.90;;;6.90;80.50;;;;;;5051038;28;20174;-67
2022/03/01 00:41:22;;;;;;;33.90;19.95;;;6.90;80.70;;;;;;5074816;28;20183;-67
2022/03/01 00:43:48;;;;;;;29.15;18.98;;;6.80;81.00;;;;;;5073935;28;20187;-67
2022/03/01 00:46:14;;;;;;;36.50;19.48;;;6.80;81.20;;;;;;5056008;28;20181;-66
2022/03/01 00:48:39;;;;;;;32.30;19.88;;;6.70;81.40;;;;;;5070279;28;20274;-67
2022/03/01 00:51:06;;;;;;;35.00;19.25;;;6.70;81.80;;;;;;5076609;28;20301;-66
2022/03/01 00:53:31;;;;;;;34.78;20.63;;;6.70;82.00;;;;;;5066745;28;20239;-66
2022/03/01 00:55:57;;;;;;;34.25;20.27;;;6.70;82.30;;;;;;5068351;28;20202;-68
2022/03/01 00:58:23;;;;;;;36.38;20.80;;;6.60;82.60;;;;;;5069306;28;20182;-67
2022/03/01 01:00:48;;;;;;;35.47;20.65;;;6.60;82.80;;;;;;5051409;28;20187;-67
2022/03/01 01:03:14;;;;;;;37.72;20.92;;;6.60;83.00;;;;;;5068163;28;20195;-67
2022/03/01 01:05:39;;;;;;;37.78;21.50;;;6.50;83.10;;;;;;5037364;28;20194;-68
2022/03/01 01:08:05;;;;;;;31.35;19.73;;;6.50;83.40;;;;;;5068104;28;20182;-67
2022/03/01 01:10:31;;;;;;;39.30;21.08;;;6.50;83.70;;;;;;5036325;28;20263;-66
2022/03/01 01:12:56;;;;;;;35.30;21.52;;;6.40;83.90;;;;;;5068602;28;20197;-67
2022/03/01 01:15:22;;;;;;;36.90;21.13;;;6.40;84.20;;;;;;5069726;28;20217;-67
2022/03/01 01:17:48;;;;;;;33.60;20.15;;;6.30;84.40;;;;;;5066900;28;20198;-67
2022/03/01 01:20:15;;;;;;;39.13;21.02;;;6.30;84.80;;;;;;5069358;28;20186;-66
2022/03/01 01:22:41;;;;;;;33.15;20.17;;;6.30;85.20;;;;;;5067412;28;20224;-67
2022/03/01 01:25:10;;;;;;;34.50;20.20;;;6.30;85.50;;;;;;5069230;28;20727;-66
2022/03/01 01:27:37;;;;;;;34.05;20.27;;;6.30;85.70;;;;;;5073078;28;20293;-67
2022/03/01 01:30:05;;;;;;;34.50;19.70;;;6.20;85.90;;;;;;5068565;28;20226;-66
2022/03/01 01:32:30;;;;;;;36.25;21.05;;;6.30;86.20;;;;;;5068163;28;20198;-66
2022/03/01 01:34:56;;;;;;;35.75;21.42;;;6.30;86.30;;;;;;5050278;28;20554;-66
2022/03/01 01:37:21;;;;;;;36.05;20.98;;;6.20;86.40;;;;;;5075184;28;20266;-66
2022/03/01 01:39:47;;;;;;;35.97;20.17;;;6.20;86.50;;;;;;5070125;28;20186;-66
2022/03/01 01:42:13;;;;;;;34.60;19.63;;;6.20;86.80;;;;;;5083534;28;20237;-65
2022/03/01 01:44:39;;;;;;;33.00;19.55;;;6.20;87.60;;;;;;5072471;28;20206;-66
2022/03/01 01:47:07;;;;;;;31.27;19.38;;;6.20;87.10;;;;;;5067838;28;21027;-65
2022/03/01 01:49:33;;;;;;;36.33;19.50;;;6.20;87.30;;;;;;5069111;28;20697;-66
2022/03/01 01:51:59;;;;;;;37.00;20.23;;;6.20;87.60;;;;;;5066753;28;20183;-65
2022/03/01 01:54:25;;;;;;;33.75;20.00;;;6.20;87.80;;;;;;5066546;28;20186;-65
2022/03/01 01:56:50;;;;;;;32.30;19.98;;;6.20;87.90;;;;;;5067959;28;20189;-66
2022/03/01 01:59:16;;;;;;;33.90;19.73;;;6.20;88.00;;;;;;5089875;28;20182;-67
2022/03/01 02:01:44;;;;;;;33.90;20.08;;;6.20;88.20;;;;;;5051233;28;20247;-66
2022/03/01 02:04:10;;;;;;;38.47;20.70;;;6.20;88.30;;;;;;5075506;28;20193;-64
2022/03/01 02:06:57;;;;;;;36.92;19.67;;;6.20;88.30;;;;;;5059169;28;20183;-67
2022/03/01 02:09:23;;;;;;;38.05;20.23;;;6.20;88.40;;;;;;5067721;28;20253;-66
2022/03/01 02:11:48;;;;;;;34.65;23.40;;;6.20;88.50;;;;;;5065845;28;20435;-65
2022/03/01 02:14:14;;;;;;;34.45;20.95;;;6.60;89.60;;;;;;5049680;28;20594;-64
2022/03/01 02:16:41;;;;;;;34.83;21.30;;;6.50;89.30;;;;;;5076474;28;20232;-65
2022/03/01 02:19:11;;;;;;;32.33;20.60;;;6.40;89.40;;;;;;5072136;28;20523;-67
2022/03/01 02:21:46;;;;;;;36.63;20.23;;;6.30;89.50;;;;;;5059895;28;20667;-65
2022/03/01 02:24:12;;;;;;;35.55;20.05;;;6.20;89.50;;;;;;5067363;28;20190;-66
2022/03/01 02:26:38;;;;;;;40.50;20.15;;;6.20;89.60;;;;;;5075216;28;20186;-66
2022/03/01 02:29:03;;;;;;;29.92;19.98;;;6.20;89.60;;;;;;5066495;28;20223;-67
2022/03/01 02:31:29;;;;;;;34.55;20.17;;;6.10;89.60;;;;;;5068315;28;20178;-65
2022/03/01 02:33:55;;;;;;;33.83;20.00;;;6.10;89.60;;;;;;5068657;28;20265;-65
2022/03/01 02:36:20;;;;;;;39.78;21.25;;;6.10;89.70;;;;;;5077729;28;20193;-64
2022/03/01 02:38:46;;;;;;;36.55;20.05;;;6.10;89.80;;;;;;5077473;28;20310;-65
2022/03/01 02:41:11;;;;;;;34.15;20.88;;;6.10;90.00;;;;;;5074822;28;20551;-65
2022/03/01 02:43:37;;;;;;;39.13;21.52;;;6.00;90.00;;;;;;5068073;28;20732;-66
2022/03/01 02:46:03;;;;;;;33.58;20.27;;;6.00;90.00;;;;;;5068363;28;20194;-66
2022/03/01 02:48:28;;;;;;;34.17;19.80;;;6.00;90.00;;;;;;5064684;28;20191;-66
2022/03/01 02:50:54;;;;;;;32.53;19.60;;;6.00;90.00;;;;;;5083026;28;20291;-67
2022/03/01 02:53:20;;;;;;;35.33;20.50;;;5.90;90.10;;;;;;5066583;28;20193;-66
2022/03/01 02:55:45;;;;;;;36.13;20.75;;;5.90;90.10;;;;;;5068932;28;20203;-69
2022/03/01 02:58:11;;;;;;;35.05;20.63;;;5.90;90.20;;;;;;5065895;28;20195;-68
2022/03/01 03:00:38;;;;;;;33.65;19.88;;;5.90;90.30;;;;;;5067357;28;20182;-68
2022/03/01 03:03:03;;;;;;;33.63;19.95;;;5.90;90.30;;;;;;5065457;28;20197;-67
2022/03/01 03:05:29;;;;;;;41.33;21.80;;;5.90;90.40;;;;;;5034471;28;20190;-67
2022/03/01 03:07:55;;;;;;;36.08;21.25;;;5.90;90.50;;;;;;5067258;28;20193;-68
2022/03/01 03:10:21;;;;;;;38.25;20.02;;;5.90;90.50;;;;;;5040363;28;20213;-66
2022/03/01 03:12:46;;;;;;;36.38;20.50;;;5.90;90.60;;;;;;5077315;28;20182;-67
2022/03/01 03:15:12;;;;;;;33.95;20.20;;;5.90;90.60;;;;;;5068612;28;20189;-67
2022/03/01 03:17:39;;;;;;;33.88;20.27;;;5.90;90.70;;;;;;5066541;28;20197;-66
2022/03/01 03:20:05;;;;;;;36.05;19.88;;;5.90;90.70;;;;;;5065377;28;20829;-69
2022/03/01 03:22:31;;;;;;;36.22;20.52;;;5.90;90.80;;;;;;5066457;28;20194;-68
2022/03/01 03:24:57;;;;;;;31.00;19.38;;;6.00;90.90;;;;;;5033200;28;20194;-68
2022/03/01 03:27:22;;;;;;;35.50;20.65;;;6.00;90.90;;;;;;5046106;28;20213;-69
2022/03/01 03:29:48;;;;;;;30.48;19.15;;;6.00;90.90;;;;;;5050017;28;20299;-70
2022/03/01 03:32:13;;;;;;;35.88;20.45;;;6.00;90.90;;;;;;5049930;28;20608;-68
2022/03/01 03:34:39;;;;;;;40.53;20.27;;;6.00;90.90;;;;;;5066710;28;20190;-69
2022/03/01 03:37:05;;;;;;;33.90;19.42;;;6.00;90.90;;;;;;5047601;28;20187;-68
2022/03/01 03:39:30;;;;;;;38.28;20.13;;;5.90;90.90;;;;;;5049903;28;20681;-70
2022/03/01 03:41:56;;;;;;;33.78;19.75;;;5.90;91.00;;;;;;5065503;28;20576;-66
2022/03/01 03:44:22;;;;;;;33.70;20.20;;;5.90;91.00;;;;;;5066435;28;20187;-66
2022/03/01 03:46:47;;;;;;;35.63;20.52;;;6.00;91.10;;;;;;5055354;28;20674;-67
2022/03/01 03:49:13;;;;;;;32.72;19.48;;;6.00;91.10;;;;;;5041003;28;20191;-67
2022/03/01 03:51:39;;;;;;;35.45;19.73;;;6.00;91.10;;;;;;5067934;28;20194;-67
2022/03/01 03:54:04;;;;;;;35.22;20.02;;;6.00;91.10;;;;;;5066328;28;20253;-67
2022/03/01 03:56:30;;;;;;;37.45;19.50;;;6.00;91.10;;;;;;5079168;28;20181;-67
2022/03/01 03:58:57;;;;;;;34.42;19.92;;;6.00;91.10;;;;;;5080698;28;20193;-68
2022/03/01 04:01:24;;;;;;;34.80;20.30;;;6.00;91.10;;;;;;5068260;28;20266;-66
2022/03/01 04:03:51;;;;;;;36.53;19.38;;;6.00;91.10;;;;;;5071052;28;20187;-67
2022/03/01 04:06:17;;;;;;;34.85;20.15;;;6.00;91.10;;;;;;5066852;28;20639;-68
2022/03/01 04:08:43;;;;;;;41.35;20.55;;;6.00;91.20;;;;;;5048618;28;20186;-67
2022/03/01 04:11:08;;;;;;;33.90;20.10;;;6.00;91.20;;;;;;5067225;28;20210;-69
2022/03/01 04:13:34;;;;;;;33.85;19.33;;;6.00;91.20;;;;;;5069598;28;20187;-68
2022/03/01 04:16:00;;;;;;;34.38;20.23;;;6.00;91.10;;;;;;5081291;28;20170;-68
2022/03/01 04:18:25;;;;;;;35.17;19.60;;;6.00;91.10;;;;;;5051306;28;20179;-68
2022/03/01 04:20:51;;;;;;;35.28;19.98;;;6.10;91.10;;;;;;5037375;28;20726;-69
2022/03/01 04:23:17;;;;;;;34.15;19.67;;;6.10;91.10;;;;;;5053154;28;20236;-68
2022/03/01 04:25:42;;;;;;;32.60;19.25;;;6.00;91.10;;;;;;5072125;28;20190;-67
2022/03/01 04:28:08;;;;;;;33.45;18.77;;;6.10;91.00;;;;;;5068377;28;20198;-66
2022/03/01 04:30:34;;;;;;;34.38;19.55;;;6.10;91.00;;;;;;5058311;28;20758;-64
2022/03/01 04:33:00;;;;;;;35.20;19.83;;;6.10;91.10;;;;;;5061823;28;20191;-68
2022/03/01 04:35:27;;;;;;;33.70;19.42;;;6.10;91.00;;;;;;5062919;28;20898;-66
2022/03/01 04:37:53;;;;;;;31.02;18.50;;;6.10;91.00;;;;;;5067674;28;20793;-67
2022/03/01 04:40:19;;;;;;;32.00;19.40;;;6.10;91.10;;;;;;5054394;28;20210;-67
2022/03/01 04:42:45;;;;;;;33.88;18.95;;;6.10;91.10;;;;;;5069155;28;20190;-68
2022/03/01 04:45:11;;;;;;;33.10;18.52;;;6.10;91.00;;;;;;5069593;28;20773;-67
2022/03/01 04:47:38;;;;;;;31.83;19.25;;;6.10;91.00;;;;;;5068946;28;20315;-67
2022/03/01 04:50:05;;;;;;;31.98;19.35;;;6.10;90.90;;;;;;5035090;28;20284;-69
2022/03/01 04:52:30;;;;;;;31.90;19.63;;;6.20;90.90;;;;;;5068062;28;20175;-69
2022/03/01 04:54:56;;;;;;;29.35;17.83;;;6.20;90.90;;;;;;5051569;28;20186;-68
2022/03/01 04:57:22;;;;;;;33.67;19.75;;;6.20;90.90;;;;;;5053410;28;20212;-68
2022/03/01 04:59:47;;;;;;;29.45;17.88;;;6.20;90.80;;;;;;5065492;28;20186;-67
2022/03/01 05:02:13;;;;;;;31.13;19.15;;;6.20;90.90;;;;;;5068876;28;20190;-68
2022/03/01 05:04:38;;;;;;;33.38;19.60;;;6.20;90.80;;;;;;5068654;28;20269;-68
2022/03/01 05:07:04;;;;;;;28.63;17.40;;;6.20;90.80;;;;;;5071042;28;20782;-68
2022/03/01 05:09:30;;;;;;;31.80;18.90;;;6.20;90.70;;;;;;5053266;28;20194;-70
2022/03/01 05:11:55;;;;;;;31.25;18.50;;;6.20;90.80;;;;;;5073722;28;20182;-69
2022/03/01 05:14:21;;;;;;;32.25;18.98;;;6.20;91.10;;;;;;5051925;28;20720;-65
2022/03/01 05:16:47;;;;;;;33.22;18.45;;;6.20;90.70;;;;;;5068061;28;20178;-66
2022/03/01 05:19:13;;;;;;;29.10;17.40;;;6.20;90.70;;;;;;5068385;28;20174;-67
2022/03/01 05:21:40;;;;;;;38.25;19.10;;;6.20;90.70;;;;;;5070278;28;20190;-69
2022/03/01 05:24:06;;;;;;;33.38;18.60;;;6.20;90.70;;;;;;5067432;28;20212;-68
2022/03/01 05:26:32;;;;;;;33.15;19.27;;;6.20;90.70;;;;;;5068891;28;20179;-66
2022/03/01 05:28:58;;;;;;;31.27;18.85;;;6.20;90.70;;;;;;5068155;28;20218;-67
2022/03/01 05:31:24;;;;;;;31.90;19.02;;;6.20;90.70;;;;;;5068837;28;20205;-69
2022/03/01 05:33:50;;;;;;;28.70;18.23;;;6.30;90.80;;;;;;5065318;28;20545;-67
2022/03/01 05:36:16;;;;;;;31.30;19.55;;;6.20;90.80;;;;;;5069260;28;20718;-69
2022/03/01 05:38:43;;;;;;;34.80;19.13;;;6.30;90.80;;;;;;5048167;28;20186;-68
2022/03/01 05:41:08;;;;;;;34.63;18.55;;;6.20;90.80;;;;;;5049955;28;20194;-67
2022/03/01 05:43:36;;;;;;;31.08;19.20;;;6.30;90.80;;;;;;5067580;28;20257;-66
2022/03/01 05:46:02;;;;;;;32.85;18.88;;;6.30;90.90;;;;;;5067327;28;20221;-65
2022/03/01 05:48:27;;;;;;;34.17;18.37;;;6.20;90.90;;;;;;5070753;28;20190;-65
2022/03/01 05:50:54;;;;;;;34.03;18.70;;;6.20;90.90;;;;;;5076473;28;20201;-66
2022/03/01 05:53:20;;;;;;;32.10;19.05;;;6.20;90.90;;;;;;5066555;28;20183;-66
2022/03/01 05:55:46;;;;;;;30.38;18.35;;;6.30;91.00;;;;;;5068934;28;20251;-66
2022/03/01 05:58:11;;;;;;;30.65;18.67;;;6.30;91.00;;;;;;5066781;28;20189;-66
2022/03/01 06:00:37;;;;;;;31.48;19.25;;;6.30;91.00;;;;;;5069438;28;20187;-66
2022/03/01 06:03:03;;;;;;;36.05;18.73;;;6.30;91.10;;;;;;5050230;28;20185;-66
2022/03/01 06:05:29;;;;;;;32.67;19.10;;;6.30;91.10;;;;;;5068320;28;20175;-68
2022/03/01 06:07:56;;;;;;;29.75;18.45;;;6.30;91.10;;;;;;5069245;28;20186;-68
2022/03/01 06:10:22;;;;;;;32.55;18.45;;;6.30;91.20;;;;;;5069629;28;20206;-68
2022/03/01 06:12:47;;;;;;;31.67;18.83;;;6.30;91.30;;;;;;5065163;28;20210;-66
2022/03/01 06:15:13;;;;;;;37.45;19.77;;;6.30;91.40;;;;;;5067765;28;20179;-69
2022/03/01 06:17:39;;;;;;;32.90;18.50;;;6.30;91.40;;;;;;5077824;28;20197;-68
2022/03/01 06:20:06;;;;;;;31.23;18.95;;;6.30;91.60;;;;;;5050550;28;20183;-67
2022/03/01 06:22:32;;;;;;;27.30;17.50;;;6.30;91.60;;;;;;5049965;28;20190;-68
2022/03/01 06:24:58;;;;;;;30.20;18.17;;;6.30;91.70;;;;;;5066272;28;20185;-65
2022/03/01 06:27:25;;;;;;;29.17;18.30;;;6.30;91.80;;;;;;5047526;28;20198;-66
2022/03/01 06:29:50;;;;;;;29.75;18.98;;;6.30;91.80;;;;;;5065462;28;20785;-66
2022/03/01 06:32:16;;;;;;;32.33;19.45;;;6.30;91.90;;;;;;5070712;28;20183;-66
2022/03/01 06:34:42;;;;;;;39.17;18.77;;;6.30;91.90;;;;;;5065956;28;20182;-67
2022/03/01 06:37:12;;;;;;;30.10;18.35;;;6.30;92.10;;;;;;5048000;28;20258;-66
2022/03/01 06:39:42;;;;;;;29.95;18.38;;;6.30;92.10;;;;;;5049492;28;20199;-65
2022/03/01 06:42:09;;;;;;;32.95;19.05;;;6.40;92.20;;;;;;5069170;28;20665;-66
2022/03/01 06:44:35;;;;;;;31.13;19.50;;;6.40;92.20;;;;;;5071314;28;20532;-66
2022/03/01 06:47:02;;;;;;;33.50;19.67;;;6.40;92.30;;;;;;5066257;28;20669;-66
2022/03/01 06:49:28;;;;;;;34.22;18.60;;;6.40;92.30;;;;;;5047908;28;20241;-66
2022/03/01 06:51:53;;;;;;;33.38;18.27;;;6.40;92.40;;;;;;5059684;28;20661;-66
2022/03/01 06:54:19;;;;;;;31.17;18.80;;;6.40;92.40;;;;;;5050310;28;20203;-68
2022/03/01 06:56:46;;;;;;;39.00;19.25;;;6.40;92.40;;;;;;5067796;28;20552;-66
2022/03/01 06:59:16;;;;;;;34.33;18.15;;;6.40;92.50;;;;;;5054496;28;20201;-67
2022/03/01 07:01:41;;;;;;;28.65;18.25;;;6.40;92.50;;;;;;5068301;28;20191;-65
2022/03/01 07:04:07;;;;;;;31.17;18.45;;;6.40;92.50;;;;;;5049570;28;20179;-65
2022/03/01 07:06:33;;;;;;;37.72;19.40;;;6.40;92.60;;;;;;5065703;28;20173;-65
2022/03/01 07:08:58;;;;;;;32.05;18.77;;;6.50;92.60;;;;;;5033302;28;20186;-67
2022/03/01 07:11:24;;;;;;;32.58;19.48;;;6.40;92.70;;;;;;5067577;28;20655;-68
2022/03/01 07:13:50;;;;;;;32.95;18.17;;;6.50;92.80;;;;;;5048507;28;20178;-66
2022/03/01 07:16:16;;;;;;;31.65;18.10;;;6.50;92.80;;;;;;5050222;28;20186;-67
2022/03/01 07:18:42;;;;;;;31.55;19.13;;;6.40;92.80;;;;;;5065839;28;20320;-67
2022/03/01 07:21:08;;;;;;;29.80;17.83;;;6.50;92.90;;;;;;5054812;28;20714;-66
2022/03/01 07:23:34;;;;;;;33.42;18.38;;;6.50;92.90;;;;;;5071825;28;20231;-66
2022/03/01 07:26:01;;;;;;;30.48;18.65;;;6.50;92.80;;;;;;5048651;28;20182;-67
2022/03/01 07:28:27;;;;;;;38.17;18.60;;;6.50;92.80;;;;;;5065812;28;20213;-66
2022/03/01 07:30:54;;;;;;;29.35;18.63;;;6.40;92.70;;;;;;5067260;28;20227;-67
2022/03/01 07:33:20;;;;;;;30.27;18.42;;;6.50;92.70;;;;;;5066308;28;20199;-67
2022/03/01 07:35:46;;;;;;;28.45;18.30;;;6.50;92.80;;;;;;5067102;28;20189;-68
2022/03/01 07:38:11;;;;;;;34.13;18.65;;;6.50;92.80;;;;;;5068209;28;20521;-66
2022/03/01 07:40:37;;;;;;;33.35;19.85;;;6.40;92.80;;;;;;5040751;28;20204;-67
2022/03/01 07:43:03;;;;;;;31.08;18.08;;;6.40;92.80;;;;;;5072427;28;20651;-66
2022/03/01 07:45:29;;;;;;;31.42;18.48;;;6.50;93.00;;;;;;5073517;28;20194;-67
2022/03/01 07:47:55;;;;;;;37.72;18.25;;;6.50;93.00;;;;;;5055537;28;20221;-67
2022/03/01 07:50:21;;;;;;;27.73;17.70;;;6.50;93.00;;;;;;5070241;28;20622;-67
2022/03/01 07:52:47;;;;;;;31.45;18.20;;;6.50;93.10;;;;;;5071837;28;20186;-68
2022/03/01 07:55:13;;;;;;;32.22;18.58;;;6.50;93.10;;;;;;5051945;28;20197;-68
2022/03/01 07:57:39;;;;;;;30.02;17.88;;;6.50;93.10;;;;;;5070834;28;20206;-70
2022/03/01 08:00:05;;;;;;;32.13;18.40;;;6.50;93.10;;;;;;5074423;28;20271;-68
2022/03/01 08:02:38;;;;;;;31.25;18.88;;;6.50;93.10;;;;;;5070559;28;20194;-70
2022/03/01 08:05:08;;;;;;;38.83;18.88;;;6.50;93.10;;;;;;5040327;28;20205;-68
2022/03/01 08:07:34;;;;;;;34.67;18.30;;;6.50;93.10;;;;;;5068877;28;20668;-68
2022/03/01 08:10:00;;;;;;;30.23;18.25;;;6.50;93.20;;;;;;5080019;28;20236;-67
2022/03/01 08:12:26;;;;;;;32.72;19.25;;;6.50;93.20;;;;;;5085628;28;20587;-68
2022/03/01 08:14:52;;;;;;;35.50;19.00;;;6.50;93.20;;;;;;5052319;28;20183;-67
2022/03/01 08:17:19;;;;;;;29.58;17.85;;;6.50;93.30;;;;;;5070281;28;20554;-67
2022/03/01 08:19:49;;;;;;;31.15;18.23;;;6.50;93.30;;;;;;5078872;28;20198;-67
2022/03/01 08:22:15;;;;;;;32.58;18.10;;;6.50;93.40;;;;;;5082843;28;20994;-67
2022/03/01 08:24:41;;;;;;;33.35;18.92;;;6.50;93.50;;;;;;5071995;28;20225;-67
2022/03/01 08:27:07;;;;;;;30.90;18.58;;;6.50;93.50;;;;;;5076443;28;20182;-68
2022/03/01 08:29:33;;;;;;;32.05;17.98;;;6.50;93.60;;;;;;5069433;28;20704;-68
2022/03/01 08:31:59;;;;;;;35.10;18.67;;;6.50;93.60;;;;;;5073571;28;20174;-68
2022/03/01 08:34:25;;;;;;;36.83;19.80;;;6.50;93.60;;;;;;5069397;28;20658;-67
2022/03/01 08:36:51;;;;;;;32.88;17.42;;;6.50;93.70;;;;;;5080197;28;20174;-68
2022/03/01 08:39:17;;;;;;;30.27;17.85;;;6.50;93.70;;;;;;5070457;28;20507;-69
2022/03/01 08:41:42;;;;;;;26.05;17.05;;;6.60;93.80;;;;;;5070845;28;20178;-68
2022/03/01 08:44:08;;;;;;;29.67;17.85;;;6.60;93.80;;;;;;5065683;28;20190;-67
2022/03/01 08:46:34;;;;;;;31.25;18.00;;;6.60;93.80;;;;;;5052127;28;20199;-67
2022/03/01 08:49:00;;;;;;;31.77;17.80;;;6.60;93.80;;;;;;5069243;28;20186;-66
2022/03/01 08:51:25;;;;;;;31.08;17.48;;;6.60;93.80;;;;;;5076131;28;20207;-67
2022/03/01 08:53:52;;;;;;;30.48;18.13;;;6.70;93.80;;;;;;5069635;28;20236;-66
2022/03/01 08:56:19;;;;;;;31.08;18.15;;;6.60;93.70;;;;;;5070607;28;20179;-66
2022/03/01 08:58:45;;;;;;;35.65;17.75;;;6.60;93.80;;;;;;5078397;28;20711;-66
2022/03/01 09:01:11;;;;;;;33.83;17.10;;;6.60;93.90;;;;;;5071744;28;20256;-66
2022/03/01 09:03:37;;;;;;;34.53;18.10;;;6.60;93.90;;;;;;5069265;28;20194;-67
2022/03/01 09:06:05;;;;;;;28.10;17.77;;;6.60;94.00;;;;;;5052725;28;20198;-68
2022/03/01 09:08:40;;;;;;;36.38;18.48;;;6.60;94.10;;;;;;5070128;28;20678;-68
2022/03/01 09:11:09;;;;;;;28.42;17.77;;;6.60;94.10;;;;;;5070102;28;20210;-67
2022/03/01 09:13:35;;;;;;;34.13;18.70;;;6.50;94.30;;;;;;5058720;28;20579;-67
2022/03/01 09:16:01;;;;;;;29.58;19.15;;;6.60;94.40;;;;;;5076487;28;20463;-67
2022/03/01 09:18:26;;;;;;;37.00;19.48;;;6.60;94.40;;;;;;5074155;28;20183;-67
2022/03/01 09:20:52;;;;;;;32.55;19.75;;;6.50;94.40;;;;;;5070445;28;20244;-68
2022/03/01 09:23:17;;;;;;;33.78;19.15;;;6.60;94.60;;;;;;5074723;28;20246;-68
2022/03/01 09:25:43;;;;;;;31.45;19.27;;;6.50;94.70;;;;;;5074830;28;20202;-68
2022/03/01 09:28:09;;;;;;;30.88;19.13;;;6.50;94.80;;;;;;5070708;28;20182;-68
2022/03/01 09:30:35;;;;;;;32.25;18.95;;;6.50;94.90;;;;;;5059903;28;20233;-67
2022/03/01 09:33:00;;;;;;;35.17;19.10;;;6.50;95.00;;;;;;5068413;28;20729;-66
2022/03/01 09:35:27;;;;;;;35.03;19.42;;;6.50;95.30;;;;;;5084994;28;20284;-66
2022/03/01 09:37:53;;;;;;;36.25;20.95;;;6.50;95.20;;;;;;5068828;28;20190;-66
2022/03/01 09:40:19;;;;;;;38.88;20.20;;;6.50;95.30;;;;;;5053906;28;20186;-66
2022/03/01 09:42:44;;;;;;;37.33;20.70;;;6.50;95.40;;;;;;5073178;28;20186;-65
2022/03/01 09:45:12;;;;;;;34.83;20.85;;;6.50;95.50;;;;;;5052762;28;20186;-66
2022/03/01 09:47:38;;;;;;;34.88;20.98;;;6.50;95.70;;;;;;5054654;28;20236;-65
2022/03/01 09:50:05;;;;;;;41.97;25.00;;;6.40;95.70;;;;;;5067227;28;21022;-65
2022/03/01 09:52:31;;;;;;;39.17;25.20;;;6.70;97.50;;;;;;5060257;28;20408;-66
2022/03/01 09:54:57;;;;;;;39.93;25.20;;;7.00;98.10;;;;;;5051670;28;20403;-66
2022/03/01 09:57:23;;;;;;;39.33;26.38;;;7.10;98.30;;;;;;5071924;28;20571;-66
2022/03/01 09:59:48;;;;;;;36.75;23.55;;;7.20;98.60;;;;;;5069274;28;20194;-66
2022/03/01 10:02:15;;;;;;;35.65;22.67;;;6.90;98.60;;;;;;5050588;28;20646;-69
2022/03/01 10:04:54;;;;;;;38.75;20.95;;;6.70;98.80;;;;;;5069853;28;20186;-66
2022/03/01 10:07:32;;;;;;;37.58;21.88;;;6.60;99.00;;;;;;5052315;28;20186;-66
2022/03/01 10:10:07;;;;;;;40.78;22.00;;;6.50;99.00;;;;;;5059121;28;20217;-66
2022/03/01 10:12:33;;;;;;;36.40;21.77;;;6.40;99.10;;;;;;5067152;28;20277;-67
2022/03/01 10:15:06;;;;;;;36.50;22.00;;;6.30;99.10;;;;;;5078043;28;20209;-66
2022/03/01 10:17:46;;;;;;;45.88;22.10;;;6.30;99.20;;;;;;5050495;28;20673;-67
2022/03/01 10:20:14;;;;;;;36.42;21.95;;;6.20;99.20;;;;;;5069130;28;20190;-67
2022/03/01 10:22:48;;;;;;;35.83;21.73;;;6.20;99.20;;;;;;5067093;28;20241;-66
2022/03/01 10:25:15;;;;;;;37.63;21.80;;;6.20;99.20;;;;;;5064939;28;20190;-66
2022/03/01 10:27:44;;;;;;;39.50;22.67;;;6.20;99.30;;;;;;5035810;28;20206;-67
2022/03/01 10:30:11;;;;;;;37.75;22.48;;;6.10;99.40;;;;;;5071330;28;20225;-68
2022/03/01 10:32:37;;;;;;;38.95;22.05;;;6.20;99.50;;;;;;5073496;28;20199;-67
2022/03/01 10:35:08;;;;;;;39.03;22.73;;;6.20;99.50;;;;;;5054021;28;20193;-67
2022/03/01 10:37:36;;;;;;;40.38;23.27;;;6.20;99.60;;;;;;5050471;28;20281;-67
2022/03/01 10:40:12;;;;;;;40.55;23.65;;;6.20;99.70;;;;;;5057120;28;20194;-66
2022/03/01 10:42:38;;;;;;;42.83;22.95;;;6.20;99.80;;;;;;5072549;28;20234;-66
2022/03/01 10:45:06;;;;;;;38.33;22.40;;;6.20;99.80;;;;;;5055775;28;20650;-66
2022/03/01 10:47:32;;;;;;;42.28;23.58;;;6.20;99.90;;;;;;5052365;28;20194;-66
2022/03/01 10:50:09;;;;;;;40.03;23.38;;;6.10;99.90;;;;;;5069644;28;20217;-66
2022/03/01 10:52:39;;;;;;;37.00;22.90;;;6.20;99.90;;;;;;5069964;28;20181;-66
2022/03/01 10:55:06;;;;;;;39.47;22.58;;;6.20;99.90;;;;;;5069607;28;20186;-66
2022/03/01 10:57:32;;;;;;;40.97;23.35;;;6.20;99.90;;;;;;5075594;28;20214;-67
2022/03/01 10:59:58;;;;;;;36.10;22.23;;;6.20;99.90;;;;;;5068922;28;20213;-67
2022/03/01 11:02:24;;;;;;;38.00;23.05;;;6.30;99.90;;;;;;5071973;28;20214;-66
2022/03/01 11:04:51;;;;;;;41.63;23.52;;;6.30;99.90;;;;;;5068552;28;20606;-66
2022/03/01 11:07:18;;;;;;;48.30;22.95;;;6.30;99.90;;;;;;5069247;28;20182;-66
2022/03/01 11:09:44;;;;;;;39.25;23.48;;;6.40;99.90;;;;;;5069080;28;20741;-66
2022/03/01 11:12:11;;;;;;;39.05;22.58;;;6.40;99.90;;;;;;5077878;28;20282;-67
2022/03/01 11:14:47;;;;;;;39.58;22.73;;;6.40;99.90;;;;;;5045408;28;20313;-66
2022/03/01 11:17:18;;;;;;;38.20;22.98;;;6.40;99.90;;;;;;5066479;28;20189;-67
2022/03/01 11:19:55;;;;;;;42.13;24.70;;;6.40;99.90;;;;;;5068311;28;20190;-67
2022/03/01 11:22:42;;;;;;;43.83;24.90;;;6.40;99.90;;;;;;5032408;28;20190;-67
2022/03/01 11:25:16;;;;;;;43.58;23.60;;;6.50;99.90;;;;;;5076799;28;20646;-68
2022/03/01 11:27:48;;;;;;;38.60;23.88;;;6.50;99.90;;;;;;5073822;28;20201;-67
2022/03/01 11:30:15;;;;;;;39.35;23.45;;;6.50;99.90;;;;;;5074964;28;20276;-67
2022/03/01 11:32:45;;;;;;;39.50;24.08;;;6.50;99.90;;;;;;5065760;28;21286;-67
2022/03/01 11:35:22;;;;;;;39.10;23.13;;;6.50;99.90;;;;;;5077366;28;20200;-66
2022/03/01 11:38:24;;;;;;;41.13;23.73;;;6.50;99.90;;;;;;5051803;28;20186;-66
2022/03/01 11:40:51;;;;;;;38.45;23.42;;;6.50;99.90;;;;;;5015578;28;20202;-67
2022/03/01 11:43:23;;;;;;;40.97;23.02;;;6.40;99.90;;;;;;5071533;28;20650;-66
2022/03/01 11:45:54;;;;;;;36.05;22.45;;;6.40;99.90;;;;;;5066869;28;20194;-67
2022/03/01 11:48:22;;;;;;;41.33;23.75;;;6.50;99.90;;;;;;5066379;28;20186;-67
2022/03/01 11:50:56;;;;;;;38.00;23.08;;;6.50;99.90;;;;;;5051907;28;20203;-67
2022/03/01 11:53:24;;;;;;;40.47;23.77;;;6.50;99.90;;;;;;5055988;28;20328;-67
2022/03/01 11:55:54;;;;;;;37.47;23.35;;;6.50;99.90;;;;;;5069245;28;20186;-67
2022/03/01 11:58:21;;;;;;;39.17;23.30;;;6.60;99.90;;;;;;5071582;28;20184;-67
2022/03/01 12:00:48;;;;;;;41.22;22.92;;;6.60;99.90;;;;;;5070709;28;20699;-67
2022/03/01 12:03:16;;;;;;;36.95;23.30;;;6.60;99.90;;;;;;5078841;28;20182;-68
2022/03/01 12:05:45;;;;;;;40.63;24.40;;;6.70;99.90;;;;;;5083212;28;20244;-68
2022/03/01 12:08:12;;;;;;;41.53;23.15;;;6.70;99.90;;;;;;5064364;28;20226;-68
2022/03/01 12:10:49;;;;;;;36.78;22.98;;;6.70;99.90;;;;;;5068464;28;20218;-67
2022/03/01 12:13:15;;;;;;;40.00;23.95;;;6.70;99.90;;;;;;5066814;28;20633;-68
2022/03/01 12:15:41;;;;;;;38.47;23.35;;;6.70;99.90;;;;;;5080844;28;20187;-68
2022/03/01 12:18:12;;;;;;;41.33;22.88;;;6.70;99.90;;;;;;5067566;28;20175;-67
2022/03/01 12:20:41;;;;;;;38.30;22.88;;;6.70;99.90;;;;;;5052001;28;20194;-68
2022/03/01 12:23:07;;;;;;;43.53;23.55;;;6.80;99.90;;;;;;5065037;28;20229;-68
2022/03/01 12:25:38;;;;;;;37.55;23.23;;;6.80;99.90;;;;;;5054799;28;20193;-67
2022/03/01 12:28:06;;;;;;;38.40;22.35;;;6.80;99.90;;;;;;5066775;28;20273;-67
2022/03/01 12:30:38;;;;;;;38.20;23.40;;;6.80;99.90;;;;;;5069387;28;20226;-67
2022/03/01 12:33:09;;;;;;;40.80;23.90;;;6.80;99.90;;;;;;5067832;28;20194;-67